Time;durP1;ratioP1;P1;durP2;ratioP2;P2;SDS_P1;SDS_P2;PMS_P1;PMS_P2;Temp;Humidity;BMP_temperature;BMP_pressure;BME280_temperature;BME280_humidity;BME280_pressure;Samples;Min_cycle;Max_cycle;Signal;HPM_P1;HPM_P2
2021/05/20 00:01:42;;;;;;;18.08;3.85;;;;;;;11.92;100.00;102367.03;5071583;28;20036;-64
2021/05/20 00:04:07;;;;;;;23.25;4.72;;;;;;;11.91;100.00;102363.47;5071495;28;20093;-64
2021/05/20 00:06:33;;;;;;;23.45;4.38;;;;;;;11.91;100.00;102360.72;5071531;28;20044;-64
2021/05/20 00:08:59;;;;;;;22.35;3.30;;;;;;;11.91;100.00;102354.41;5071429;28;20487;-63
2021/05/20 00:11:24;;;;;;;28.48;4.82;;;;;;;11.92;100.00;102361.56;5071815;28;20036;-63
2021/05/20 00:13:50;;;;;;;19.60;3.17;;;;;;;11.92;100.00;102361.56;5071136;28;20058;-64
2021/05/20 00:16:16;;;;;;;23.83;3.95;;;;;;;11.92;100.00;102351.44;5071344;28;20040;-64
2021/05/20 00:18:42;;;;;;;25.20;4.38;;;;;;;11.93;100.00;102346.81;5071470;28;20051;-64
2021/05/20 00:21:07;;;;;;;29.73;4.68;;;;;;;11.91;100.00;102348.94;5071311;28;20036;-64
2021/05/20 00:23:33;;;;;;;28.95;3.92;;;;;;;11.91;100.00;102352.50;5070711;28;20051;-64
2021/05/20 00:25:59;;;;;;;20.45;4.00;;;;;;;11.90;100.00;102348.09;5071271;28;20032;-63
2021/05/20 00:28:24;;;;;;;20.27;4.00;;;;;;;11.91;100.00;102348.94;5071189;28;20041;-63
2021/05/20 00:30:50;;;;;;;17.70;3.70;;;;;;;11.91;100.00;102343.47;5071143;28;20047;-64
2021/05/20 00:33:15;;;;;;;25.60;3.85;;;;;;;11.93;100.00;102349.56;5069829;28;20056;-63
2021/05/20 00:35:41;;;;;;;20.83;3.65;;;;;;;11.91;100.00;102344.28;5071196;28;20028;-64
2021/05/20 00:38:11;;;;;;;19.05;4.00;;;;;;;11.93;100.00;102341.34;5071373;28;20436;-64
2021/05/20 00:40:38;;;;;;;22.42;4.78;;;;;;;11.92;100.00;102331.44;5071190;28;20052;-63
2021/05/20 00:43:04;;;;;;;19.95;4.40;;;;;;;11.94;100.00;102329.31;5071048;28;20042;-64
2021/05/20 00:45:29;;;;;;;23.13;3.75;;;;;;;11.94;100.00;102326.59;5069586;28;20380;-64
2021/05/20 00:47:55;;;;;;;19.02;3.50;;;;;;;11.95;100.00;102318.16;5069722;28;20098;-63
2021/05/20 00:50:21;;;;;;;20.60;3.58;;;;;;;11.95;100.00;102312.69;5070852;28;20440;-64
2021/05/20 00:52:47;;;;;;;28.23;4.47;;;;;;;11.96;100.00;102308.88;5070852;28;20036;-63
2021/05/20 00:55:16;;;;;;;22.13;3.45;;;;;;;11.97;100.00;102316.03;5070782;28;20036;-64
2021/05/20 00:57:44;;;;;;;22.83;4.20;;;;;;;11.99;100.00;102310.38;5070981;28;20086;-64
2021/05/20 01:00:12;;;;;;;25.63;4.18;;;;;;;12.00;100.00;102307.41;5070675;28;20029;-65
2021/05/20 01:02:39;;;;;;;28.38;4.53;;;;;;;12.02;100.00;102304.47;5070716;28;20098;-64
2021/05/20 01:05:10;;;;;;;19.20;3.90;;;;;;;12.02;100.00;102307.22;5070549;28;20029;-64
2021/05/20 01:07:36;;;;;;;24.15;3.38;;;;;;;12.02;100.00;102299.00;5070778;28;20025;-63
2021/05/20 01:10:04;;;;;;;25.55;4.22;;;;;;;12.01;100.00;102294.56;5069273;28;20540;-64
2021/05/20 01:12:30;;;;;;;16.20;3.92;;;;;;;12.02;100.00;102293.50;5070417;28;20044;-64
2021/05/20 01:14:56;;;;;;;26.60;4.43;;;;;;;12.03;100.00;102292.44;5070551;28;20395;-64
2021/05/20 01:17:22;;;;;;;28.60;3.55;;;;;;;12.03;100.00;102297.94;5070664;28;20491;-64
2021/05/20 01:19:48;;;;;;;22.13;3.97;;;;;;;12.03;100.00;102287.81;5070569;28;20049;-64
2021/05/20 01:22:14;;;;;;;21.42;3.33;;;;;;;12.04;100.00;102283.19;5070465;28;20036;-64
2021/05/20 01:24:40;;;;;;;21.55;3.55;;;;;;;12.04;100.00;102284.00;5070191;28;20479;-64
2021/05/20 01:27:07;;;;;;;19.83;3.83;;;;;;;12.04;100.00;102278.53;5070650;28;20064;-64
2021/05/20 01:29:34;;;;;;;21.10;4.30;;;;;;;12.05;100.00;102276.63;5070379;28;20036;-64
2021/05/20 01:32:00;;;;;;;27.67;4.55;;;;;;;12.05;100.00;102279.38;5070373;28;20064;-65
2021/05/20 01:34:26;;;;;;;28.33;4.75;;;;;;;12.04;100.00;102272.22;5072222;28;20138;-63
2021/05/20 01:36:52;;;;;;;21.95;3.85;;;;;;;12.05;100.00;102276.63;5074483;28;20554;-64
2021/05/20 01:39:17;;;;;;;26.05;4.40;;;;;;;12.06;100.00;102275.59;5074131;28;20033;-64
2021/05/20 01:41:43;;;;;;;18.85;3.83;;;;;;;12.05;100.00;102269.25;5074251;28;20040;-63
2021/05/20 01:44:09;;;;;;;17.98;4.22;;;;;;;12.06;100.00;102265.47;5074005;28;20043;-64
2021/05/20 01:46:36;;;;;;;25.35;4.07;;;;;;;12.06;100.00;102264.63;5074022;28;20088;-64
2021/05/20 01:49:02;;;;;;;20.45;3.83;;;;;;;12.06;100.00;102251.78;5074070;28;20090;-64
2021/05/20 01:51:28;;;;;;;21.33;3.95;;;;;;;12.06;100.00;102242.72;5074138;28;20044;-65
2021/05/20 01:53:56;;;;;;;20.92;3.88;;;;;;;12.06;100.00;102248.19;5074031;28;20044;-63
2021/05/20 01:56:24;;;;;;;30.85;4.70;;;;;;;12.07;100.00;102236.19;5073904;28;20127;-64
2021/05/20 01:58:51;;;;;;;24.33;3.97;;;;;;;12.07;100.00;102238.91;5072521;28;20409;-63
2021/05/20 02:01:16;;;;;;;25.75;4.22;;;;;;;12.07;100.00;102244.41;5073977;28;20044;-64
2021/05/20 02:03:42;;;;;;;31.15;4.18;;;;;;;12.09;100.00;102236.78;5072372;28;20043;-64
2021/05/20 02:06:08;;;;;;;19.60;3.88;;;;;;;12.09;100.00;102231.31;5073631;28;20048;-63
2021/05/20 02:08:37;;;;;;;32.38;4.32;;;;;;;12.11;100.00;102229.19;5073846;28;20083;-63
2021/05/20 02:11:04;;;;;;;24.58;3.45;;;;;;;12.11;100.00;102228.34;5073902;28;20033;-64
2021/05/20 02:13:30;;;;;;;23.83;4.15;;;;;;;12.11;100.00;102229.19;5073347;28;20139;-63
2021/05/20 02:15:56;;;;;;;26.88;3.55;;;;;;;12.11;100.00;102225.63;5073626;28;20123;-63
2021/05/20 02:18:23;;;;;;;19.15;4.25;;;;;;;12.09;100.00;102225.84;5073469;28;20039;-64
2021/05/20 02:20:49;;;;;;;27.02;4.03;;;;;;;12.07;100.00;102228.81;5073484;28;20040;-64
2021/05/20 02:23:16;;;;;;;25.92;4.13;;;;;;;12.08;100.00;102219.53;5073923;28;20040;-63
2021/05/20 02:25:42;;;;;;;23.30;4.40;;;;;;;12.09;100.00;102209.41;5073580;28;20041;-64
2021/05/20 02:28:08;;;;;;;30.17;4.13;;;;;;;12.10;100.00;102204.78;5073549;28;20039;-64
2021/05/20 02:30:34;;;;;;;27.65;4.20;;;;;;;12.10;100.00;102205.59;5073616;28;20044;-64
2021/05/20 02:33:00;;;;;;;25.60;4.40;;;;;;;12.10;100.00;102202.88;5073334;28;20398;-64
2021/05/20 02:35:26;;;;;;;26.60;4.63;;;;;;;12.10;100.00;102205.59;5073260;28;20033;-64
2021/05/20 02:37:52;;;;;;;20.10;3.50;;;;;;;12.09;100.00;102201.19;5073393;28;20033;-63
2021/05/20 02:40:19;;;;;;;28.45;4.28;;;;;;;12.11;100.00;102206.44;5073248;28;20043;-64
2021/05/20 02:42:45;;;;;;;27.20;4.13;;;;;;;12.11;100.00;102195.50;5073237;28;20050;-64
2021/05/20 02:45:18;;;;;;;26.73;5.25;;;;;;;12.12;100.00;102197.16;5072611;28;20041;-64
2021/05/20 02:47:44;;;;;;;17.75;3.20;;;;;;;12.12;100.00;102187.06;5073270;28;20060;-64
2021/05/20 02:50:11;;;;;;;22.80;3.92;;;;;;;12.11;100.00;102185.38;5072984;28;20465;-63
2021/05/20 02:52:37;;;;;;;29.08;4.80;;;;;;;12.10;100.00;102178.22;5073038;28;20471;-64
2021/05/20 02:55:04;;;;;;;26.90;5.20;;;;;;;12.08;100.00;102174.88;5071726;28;20024;-64
2021/05/20 02:57:30;;;;;;;23.60;3.88;;;;;;;12.07;100.00;102162.22;5072989;28;20212;-64
2021/05/20 02:59:57;;;;;;;23.33;3.97;;;;;;;12.05;100.00;102159.72;5073067;28;20085;-64
2021/05/20 03:02:22;;;;;;;19.63;3.83;;;;;;;12.05;100.00;102153.41;5073124;28;20056;-63
2021/05/20 03:04:50;;;;;;;25.98;4.05;;;;;;;12.04;100.00;102157.19;5072862;28;20039;-65
2021/05/20 03:07:16;;;;;;;20.17;4.03;;;;;;;12.02;100.00;102137.41;5072871;28;20437;-63
2021/05/20 03:09:42;;;;;;;32.90;5.55;;;;;;;12.04;100.00;102135.28;5072738;28;20032;-63
2021/05/20 03:12:09;;;;;;;24.40;4.43;;;;;;;12.02;100.00;102131.94;5072722;28;20479;-65
2021/05/20 03:14:35;;;;;;;41.35;4.78;;;;;;;12.01;100.00;102135.75;5072328;28;20507;-64
2021/05/20 03:17:02;;;;;;;23.95;4.30;;;;;;;12.02;100.00;102131.94;5072594;28;20039;-64
2021/05/20 03:19:28;;;;;;;33.25;4.50;;;;;;;12.00;100.00;102134.06;5072535;28;20048;-64
2021/05/20 03:21:53;;;;;;;22.92;3.65;;;;;;;11.99;100.00;102127.75;5072553;28;20053;-64
2021/05/20 03:24:19;;;;;;;23.30;4.70;;;;;;;11.98;100.00;102126.06;5072418;28;20040;-64
2021/05/20 03:26:45;;;;;;;29.85;4.95;;;;;;;11.97;100.00;102124.38;5072259;28;20091;-64
2021/05/20 03:29:10;;;;;;;23.55;3.92;;;;;;;11.97;100.00;102113.41;5072160;28;20097;-63
2021/05/20 03:31:36;;;;;;;19.50;3.83;;;;;;;11.98;100.00;102108.81;5072214;28;20050;-64
2021/05/20 03:34:02;;;;;;;23.27;3.67;;;;;;;11.98;100.00;102095.94;5071974;28;20040;-64
2021/05/20 03:36:28;;;;;;;29.48;4.70;;;;;;;12.00;100.00;102101.19;5072165;28;20039;-64
2021/05/20 03:38:53;;;;;;;25.45;4.05;;;;;;;12.01;100.00;102092.75;5072058;28;20036;-63
2021/05/20 03:41:19;;;;;;;21.38;4.03;;;;;;;12.01;100.00;102083.72;5072061;28;20471;-64
2021/05/20 03:43:45;;;;;;;23.55;4.20;;;;;;;12.01;100.00;102070.03;5071902;28;20033;-64
2021/05/20 03:46:10;;;;;;;28.98;3.88;;;;;;;12.00;100.00;102065.59;5070384;28;20072;-64
2021/05/20 03:48:37;;;;;;;28.15;5.13;;;;;;;12.01;100.00;102053.59;5071657;28;20052;-64
2021/05/20 03:51:03;;;;;;;28.08;4.05;;;;;;;12.02;100.00;102068.97;5071692;28;20044;-64
2021/05/20 03:53:31;;;;;;;25.13;4.18;;;;;;;12.02;100.00;102060.75;5071674;28;20037;-63
2021/05/20 03:55:59;;;;;;;28.42;3.65;;;;;;;12.01;100.00;102053.59;5071639;28;20513;-63
2021/05/20 03:58:26;;;;;;;33.17;4.22;;;;;;;12.02;100.00;102044.31;5070744;28;20036;-64
2021/05/20 04:00:51;;;;;;;25.15;3.63;;;;;;;12.01;100.00;102034.41;5070281;28;20043;-64
2021/05/20 04:03:24;;;;;;;18.13;3.25;;;;;;;12.01;100.00;102032.53;5071494;28;20123;-63
2021/05/20 04:05:51;;;;;;;25.45;4.10;;;;;;;12.01;100.00;102026.22;5071373;28;20037;-63
2021/05/20 04:08:17;;;;;;;23.70;4.07;;;;;;;12.01;100.00;102027.03;5071939;28;20061;-64
2021/05/20 04:10:43;;;;;;;28.35;3.35;;;;;;;12.00;100.00;102013.56;5071415;28;20115;-63
2021/05/20 04:13:08;;;;;;;26.52;4.15;;;;;;;11.99;100.00;102011.91;5070994;28;20147;-63
2021/05/20 04:15:34;;;;;;;21.10;3.33;;;;;;;11.98;100.00;102004.75;5071381;28;20068;-63
2021/05/20 04:18:00;;;;;;;24.75;2.83;;;;;;;11.96;100.00;102001.38;5071287;28;20040;-64
2021/05/20 04:20:26;;;;;;;16.40;2.72;;;;;;;11.95;100.00;101989.56;5071101;28;20040;-64
2021/05/20 04:22:51;;;;;;;20.15;2.90;;;;;;;11.96;100.00;101990.41;5069827;28;20033;-64
2021/05/20 04:25:18;;;;;;;27.50;3.78;;;;;;;11.94;100.00;101967.91;5071111;28;20515;-64
2021/05/20 04:27:44;;;;;;;24.48;2.80;;;;;;;11.95;100.00;101966.84;5071230;28;20047;-64
2021/05/20 04:30:10;;;;;;;21.20;3.75;;;;;;;11.93;100.00;101961.59;5069572;28;20048;-64
2021/05/20 04:32:36;;;;;;;29.05;3.47;;;;;;;11.94;100.00;101948.72;5070969;28;20517;-63
2021/05/20 04:35:02;;;;;;;22.35;3.50;;;;;;;11.95;100.00;101947.66;5071133;28;20068;-64
2021/05/20 04:37:28;;;;;;;18.92;3.80;;;;;;;11.95;100.00;101923.03;5070980;28;20032;-63
2021/05/20 04:39:54;;;;;;;25.45;3.63;;;;;;;11.96;100.00;101919.22;5070843;28;20418;-64
2021/05/20 04:42:19;;;;;;;30.05;3.47;;;;;;;11.95;100.00;101923.03;5070928;28;20066;-64
2021/05/20 04:44:45;;;;;;;31.48;4.13;;;;;;;11.95;100.00;101917.56;5070726;28;20041;-64
2021/05/20 04:47:11;;;;;;;24.45;4.53;;;;;;;11.96;100.00;101930.19;5069537;28;20048;-63
2021/05/20 04:49:36;;;;;;;37.33;4.25;;;;;;;11.97;100.00;101931.84;5069345;28;20059;-63
2021/05/20 04:52:02;;;;;;;21.00;4.03;;;;;;;11.99;100.00;101932.50;5070964;28;20044;-64
2021/05/20 04:54:28;;;;;;;22.15;3.03;;;;;;;11.99;100.00;101924.28;5070788;28;20040;-63
2021/05/20 04:56:53;;;;;;;22.23;4.07;;;;;;;12.01;100.00;101916.69;5070715;28;20036;-64
2021/05/20 04:59:19;;;;;;;23.30;3.65;;;;;;;12.00;100.00;101904.03;5070614;28;20051;-63
2021/05/20 05:01:45;;;;;;;24.63;3.67;;;;;;;12.01;100.00;101905.72;5070768;28;20131;-64
2021/05/20 05:04:10;;;;;;;28.42;4.82;;;;;;;12.01;100.00;101902.97;5070773;28;20127;-63
2021/05/20 05:06:36;;;;;;;22.63;2.95;;;;;;;12.01;100.00;101902.97;5069358;28;20040;-64
2021/05/20 05:09:02;;;;;;;21.75;3.63;;;;;;;12.00;100.00;101904.88;5073184;28;20486;-64
2021/05/20 05:11:28;;;;;;;25.60;3.15;;;;;;;11.99;100.00;101885.94;5077280;28;20036;-64
2021/05/20 05:13:54;;;;;;;20.08;2.72;;;;;;;11.99;100.00;101891.41;5076940;28;20407;-63
2021/05/20 05:16:19;;;;;;;26.55;3.83;;;;;;;11.99;100.00;101880.47;5077196;28;20056;-64
2021/05/20 05:18:45;;;;;;;19.05;3.88;;;;;;;11.98;100.00;101879.63;5077217;28;20475;-63
2021/05/20 05:21:11;;;;;;;23.52;3.05;;;;;;;11.99;100.00;101875.00;5077234;28;20052;-63
2021/05/20 05:23:36;;;;;;;30.20;3.25;;;;;;;12.01;100.00;101872.84;5077018;28;20036;-63
2021/05/20 05:26:03;;;;;;;25.35;3.58;;;;;;;12.02;100.00;101874.53;5077015;28;20048;-63
2021/05/20 05:28:28;;;;;;;21.50;3.58;;;;;;;12.03;100.00;101868.81;5077136;28;20086;-64
2021/05/20 05:30:54;;;;;;;26.23;3.83;;;;;;;12.02;100.00;101858.09;5076940;28;20078;-63
2021/05/20 05:33:24;;;;;;;25.45;3.03;;;;;;;12.02;100.00;101836.19;5077288;28;20043;-64
2021/05/20 05:35:49;;;;;;;22.50;3.45;;;;;;;12.02;100.00;101836.19;5076888;28;20378;-63
2021/05/20 05:38:15;;;;;;;26.13;3.35;;;;;;;12.04;100.00;101823.13;5077180;28;20040;-64
2021/05/20 05:40:42;;;;;;;21.05;4.55;;;;;;;12.05;100.00;101830.25;5076880;28;20060;-63
2021/05/20 05:43:08;;;;;;;24.48;4.68;;;;;;;12.05;100.00;101824.78;5076904;28;20151;-64
2021/05/20 05:45:34;;;;;;;24.17;3.45;;;;;;;12.05;100.00;101802.88;5077096;28;20146;-63
2021/05/20 05:48:00;;;;;;;23.20;4.35;;;;;;;12.06;100.00;101815.50;5076964;28;20040;-63
2021/05/20 05:50:27;;;;;;;23.92;3.30;;;;;;;12.03;100.00;101810.50;5076908;28;20074;-64
2021/05/20 05:52:52;;;;;;;22.83;3.00;;;;;;;12.04;100.00;101809.41;5076903;28;20037;-63
2021/05/20 05:55:18;;;;;;;26.80;4.00;;;;;;;12.03;100.00;101815.97;5077068;28;20421;-63
2021/05/20 05:57:44;;;;;;;21.25;4.15;;;;;;;12.03;100.00;101799.53;5077010;28;20068;-63
2021/05/20 06:00:10;;;;;;;19.92;3.65;;;;;;;11.99;100.00;101803.81;5076749;28;20048;-63
2021/05/20 06:02:36;;;;;;;15.40;3.03;;;;;;;12.02;100.00;101797.88;5076945;28;20079;-63
2021/05/20 06:05:03;;;;;;;19.58;2.80;;;;;;;12.01;100.00;101793.47;5076760;28;20071;-63
2021/05/20 06:07:34;;;;;;;29.92;3.95;;;;;;;12.03;100.00;101785.84;5077162;28;20438;-64
2021/05/20 06:10:03;;;;;;;25.00;3.40;;;;;;;12.05;100.00;101770.03;5077364;28;20033;-63
2021/05/20 06:12:28;;;;;;;29.52;3.80;;;;;;;12.04;100.00;101755.50;5076849;28;20068;-63
2021/05/20 06:14:54;;;;;;;22.70;3.90;;;;;;;12.06;100.00;101742.41;5076480;28;20413;-63
2021/05/20 06:17:20;;;;;;;21.45;4.15;;;;;;;12.08;100.00;101758.59;5076737;28;20036;-63
2021/05/20 06:19:46;;;;;;;21.40;3.92;;;;;;;12.11;100.00;101741.69;5076324;28;20036;-64
2021/05/20 06:22:11;;;;;;;26.38;3.78;;;;;;;12.13;100.00;101744.22;5072758;28;20044;-63
2021/05/20 06:24:37;;;;;;;25.60;3.55;;;;;;;12.12;100.00;101742.53;5073371;28;20037;-63
2021/05/20 06:27:03;;;;;;;21.52;3.10;;;;;;;12.11;100.00;101738.13;5073461;28;20059;-63
2021/05/20 06:29:28;;;;;;;21.85;4.35;;;;;;;12.10;100.00;101720.88;5073460;28;20040;-63
2021/05/20 06:31:54;;;;;;;26.38;3.88;;;;;;;12.12;100.00;101726.94;5073431;28;20086;-63
2021/05/20 06:34:20;;;;;;;28.65;3.83;;;;;;;12.11;100.00;101692.41;5073125;28;20094;-63
2021/05/20 06:36:46;;;;;;;31.98;3.95;;;;;;;12.11;100.00;101681.47;5073432;28;20040;-63
2021/05/20 06:39:12;;;;;;;28.50;4.50;;;;;;;12.13;100.00;101673.84;5073224;28;20044;-63
2021/05/20 06:41:38;;;;;;;28.17;4.55;;;;;;;12.10;100.00;101663.34;5073066;28;20041;-64
2021/05/20 06:44:04;;;;;;;18.63;4.15;;;;;;;12.11;100.00;101654.06;5073071;28;20032;-64
2021/05/20 06:46:31;;;;;;;30.85;4.47;;;;;;;12.11;100.00;101659.53;5073037;28;20036;-63
2021/05/20 06:48:57;;;;;;;30.33;4.18;;;;;;;12.12;100.00;101644.78;5071868;28;20062;-64
2021/05/20 06:51:22;;;;;;;23.50;4.78;;;;;;;12.11;100.00;101632.16;5072920;28;20064;-63
2021/05/20 06:53:49;;;;;;;24.58;4.10;;;;;;;12.12;100.00;101633.84;5072918;28;20040;-64
2021/05/20 06:56:21;;;;;;;30.10;4.75;;;;;;;12.10;100.00;101641.44;5073035;28;20031;-63
2021/05/20 07:01:48;;;;;;;34.67;4.22;;;;;;;12.12;100.00;101624.78;5070416;28;20040;-65
2021/05/20 07:04:14;;;;;;;22.67;4.53;;;;;;;12.11;100.00;101615.72;5070203;28;20422;-64
2021/05/20 07:06:40;;;;;;;27.73;3.70;;;;;;;12.11;100.00;101637.63;5070227;28;20037;-63
2021/05/20 07:09:06;;;;;;;24.05;3.88;;;;;;;12.10;100.00;101622.28;5070103;28;20516;-64
2021/05/20 07:11:32;;;;;;;30.63;4.15;;;;;;;12.12;100.00;101611.09;5070156;28;20044;-63
2021/05/20 07:13:58;;;;;;;22.58;3.45;;;;;;;12.11;100.00;101587.50;5069893;28;20059;-63
2021/05/20 07:16:26;;;;;;;26.55;3.85;;;;;;;12.08;100.00;101589.66;5053222;28;20395;-64
2021/05/20 07:18:51;;;;;;;26.30;3.70;;;;;;;12.08;100.00;101573.22;5053034;28;20058;-64
2021/05/20 07:21:18;;;;;;;23.88;4.47;;;;;;;12.08;100.00;101572.41;5069956;28;20046;-63
2021/05/20 07:23:43;;;;;;;39.40;5.30;;;;;;;12.11;100.00;101558.22;5069878;28;20135;-63
2021/05/20 07:26:09;;;;;;;23.95;3.78;;;;;;;12.11;100.00;101560.97;5069681;28;20051;-64
2021/05/20 07:28:34;;;;;;;25.50;4.30;;;;;;;12.10;100.00;101556.56;5069958;28;20608;-63
2021/05/20 07:31:00;;;;;;;20.67;3.35;;;;;;;12.11;100.00;101539.06;5068766;28;20053;-63
2021/05/20 07:33:27;;;;;;;29.45;4.40;;;;;;;12.11;100.00;101522.63;5070552;28;20051;-63
2021/05/20 07:35:53;;;;;;;28.15;2.95;;;;;;;12.11;100.00;101544.53;5072148;28;20032;-64
2021/05/20 07:38:20;;;;;;;17.30;4.10;;;;;;;12.14;100.00;101538.59;5072141;28;20109;-63
2021/05/20 07:40:45;;;;;;;16.13;3.28;;;;;;;12.13;100.00;101536.91;5071987;28;20037;-64
2021/05/20 07:43:11;;;;;;;29.65;5.53;;;;;;;12.15;100.00;101515.63;5071933;28;20054;-63
2021/05/20 07:45:37;;;;;;;26.65;2.75;;;;;;;12.13;100.00;101531.44;5071319;28;20140;-63
2021/05/20 07:48:03;;;;;;;31.10;5.15;;;;;;;12.11;100.00;101522.63;5072012;28;20105;-64
2021/05/20 07:50:29;;;;;;;27.75;5.05;;;;;;;12.13;100.00;101531.44;5071706;28;20106;-64
2021/05/20 07:52:55;;;;;;;28.70;3.75;;;;;;;12.11;100.00;101547.28;5071690;28;20094;-63
2021/05/20 07:55:20;;;;;;;23.00;4.03;;;;;;;12.10;100.00;101556.56;5071693;28;20036;-63
2021/05/20 07:57:47;;;;;;;29.58;4.47;;;;;;;12.13;100.00;101568.94;5071445;28;20040;-63
2021/05/20 08:00:13;;;;;;;24.20;4.25;;;;;;;12.11;100.00;101560.97;5071289;28;20066;-63
2021/05/20 08:03:29;;;;;;;26.88;4.55;;;;;;;12.13;100.00;101568.94;5071415;28;20114;-64
2021/05/20 08:05:39;;;;;;;26.42;4.28;;;;;;;12.13;100.00;101553.34;5067669;28;20472;-64
2021/05/20 08:13:11;;;;;;;40.63;4.45;;;;;;;12.20;100.00;101534.91;5070272;28;20364;-64
2021/05/20 08:15:37;;;;;;;29.45;4.55;;;;;;;12.21;100.00;101527.53;5069896;28;20028;-64
2021/05/20 08:18:03;;;;;;;27.13;4.75;;;;;;;12.23;100.00;101519.91;5071333;28;20032;-66
2021/05/20 08:20:30;;;;;;;33.55;4.28;;;;;;;12.23;100.00;101520.75;5070601;28;20040;-65
2021/05/20 08:22:55;;;;;;;33.17;5.40;;;;;;;12.22;100.00;101538.25;5071082;28;20055;-63
2021/05/20 08:25:21;;;;;;;23.38;4.47;;;;;;;12.25;100.00;101472.03;5070488;28;20126;-62
2021/05/20 08:27:47;;;;;;;32.42;5.10;;;;;;;12.32;100.00;101459.06;5070575;28;20032;-65
2021/05/20 08:30:13;;;;;;;30.52;5.30;;;;;;;12.34;100.00;101456.94;5072660;28;20433;-63
2021/05/20 08:32:45;;;;;;;26.48;4.60;;;;;;;12.33;100.00;101432.50;5085598;28;20046;-64
2021/05/20 08:35:11;;;;;;;29.63;4.53;;;;;;;12.30;100.00;101417.38;5086876;28;20093;-64
2021/05/20 08:37:38;;;;;;;31.88;4.65;;;;;;;12.28;100.00;101405.81;5070909;28;20033;-64
2021/05/20 08:40:07;;;;;;;30.98;5.03;;;;;;;12.23;100.00;101389.28;5070631;28;20036;-63
2021/05/20 08:42:33;;;;;;;33.83;4.65;;;;;;;12.20;100.00;101387.03;5070932;28;20058;-64
2021/05/20 08:45:35;;;;;;;27.88;3.65;;;;;;;12.15;100.00;101407.97;5070120;28;20041;-66
2021/05/20 08:48:01;;;;;;;33.55;5.00;;;;;;;12.13;100.00;101419.16;5029878;28;20124;-63
2021/05/20 08:50:29;;;;;;;32.80;4.72;;;;;;;12.02;100.00;101388.00;5058837;28;20052;-63
2021/05/20 08:52:55;;;;;;;30.50;4.50;;;;;;;12.01;100.00;101396.44;5069662;28;20384;-66
2021/05/20 08:55:27;;;;;;;31.38;4.38;;;;;;;11.89;100.00;101401.06;5067815;28;20029;-64
2021/05/20 08:57:58;;;;;;;30.65;4.30;;;;;;;11.85;100.00;101416.31;5062260;28;20032;-63
2021/05/20 09:00:25;;;;;;;33.13;4.10;;;;;;;11.73;100.00;101406.16;5070743;28;20095;-66
2021/05/20 09:02:51;;;;;;;29.98;4.72;;;;;;;11.71;100.00;101404.72;5070483;28;20041;-64
2021/05/20 09:05:20;;;;;;;21.23;3.53;;;;;;;11.66;100.00;101385.44;5070322;28;20036;-65
2021/05/20 09:07:50;;;;;;;27.48;5.88;;;;;;;11.68;100.00;101400.56;5069856;28;20047;-65
2021/05/20 09:10:20;;;;;;;25.40;3.50;;;;;;;11.69;100.00;101374.84;5058136;28;20033;-64
2021/05/20 09:12:48;;;;;;;40.08;4.93;;;;;;;11.75;100.00;101393.06;5070339;28;20498;-64
2021/05/20 09:15:16;;;;;;;30.52;5.75;;;;;;;11.83;100.00;101382.88;5069228;28;20073;-62
2021/05/20 09:17:43;;;;;;;28.27;4.47;;;;;;;11.83;100.00;101350.03;5069876;28;20616;-68
2021/05/20 09:20:09;;;;;;;38.20;5.07;;;;;;;11.86;100.00;101349.56;5070438;28;20394;-66
2021/05/20 09:22:35;;;;;;;29.83;5.38;;;;;;;11.87;100.00;101378.59;5070288;28;20464;-67
2021/05/20 09:25:04;;;;;;;40.97;7.10;;;;;;;11.83;100.00;101344.56;5070249;28;20040;-66
2021/05/20 09:27:45;;;;;;;38.42;5.90;;;;;;;11.78;100.00;101348.81;5069855;28;20034;-65
2021/05/20 09:30:12;;;;;;;36.78;6.88;;;;;;;11.75;100.00;101364.84;5070148;28;20082;-65
2021/05/20 09:32:48;;;;;;;44.90;7.53;;;;;;;11.72;100.00;101338.81;5069869;28;20480;-65
2021/05/20 09:35:16;;;;;;;35.35;5.72;;;;;;;11.71;100.00;101336.31;5070269;28;20154;-64
2021/05/20 09:38:00;;;;;;;44.35;7.63;;;;;;;11.63;100.00;101342.97;5070070;28;20037;-65
2021/05/20 09:40:30;;;;;;;46.90;6.63;;;;;;;11.55;100.00;101288.59;5070207;28;20032;-64
2021/05/20 09:42:56;;;;;;;38.10;5.80;;;;;;;11.53;100.00;101296.22;5069762;28;20897;-64
2021/05/20 09:45:27;;;;;;;48.03;7.38;;;;;;;11.54;100.00;101303.34;5070139;28;20040;-64
2021/05/20 09:48:03;;;;;;;56.17;7.53;;;;;;;11.54;100.00;101297.88;5068656;28;20036;-65
2021/05/20 09:50:29;;;;;;;47.03;6.93;;;;;;;11.53;100.00;101290.75;5070120;28;20045;-64
2021/05/20 09:53:02;;;;;;;45.33;6.85;;;;;;;11.53;100.00;101298.13;5069967;28;20032;-64
2021/05/20 09:55:28;;;;;;;48.70;7.72;;;;;;;11.54;100.00;101284.19;5069891;28;20044;-63
2021/05/20 09:57:56;;;;;;;59.30;8.05;;;;;;;11.51;100.00;101271.00;5073366;28;20032;-65
2021/05/20 10:00:26;;;;;;;54.40;7.85;;;;;;;11.57;100.00;101289.19;5073515;28;20032;-64
2021/05/20 10:03:09;;;;;;;44.92;7.55;;;;;;;11.63;100.00;101258.16;5073582;28;20442;-65
2021/05/20 10:05:42;;;;;;;57.22;8.27;;;;;;;11.67;100.00;101270.28;5073747;28;20040;-65
2021/05/20 10:08:10;;;;;;;56.92;7.68;;;;;;;11.74;100.00;101262.75;5073522;28;20094;-65
2021/05/20 10:10:39;;;;;;;50.05;7.95;;;;;;;11.78;100.00;101253.03;5073729;28;20135;-65
2021/05/20 10:13:07;;;;;;;37.75;6.10;;;;;;;11.81;100.00;101226.28;5073520;28;20052;-65
2021/05/20 10:15:35;;;;;;;61.45;9.55;;;;;;;11.85;100.00;101214.59;5073486;28;20031;-65
2021/05/20 10:18:06;;;;;;;55.90;8.68;;;;;;;11.84;100.00;101209.38;5073732;28;20028;-65
2021/05/20 10:20:34;;;;;;;54.00;8.82;;;;;;;11.84;100.00;101187.47;5073429;28;20102;-64
2021/05/20 10:23:00;;;;;;;65.55;8.68;;;;;;;11.81;100.00;101193.44;5073196;28;20466;-65
2021/05/20 10:25:26;;;;;;;65.28;9.18;;;;;;;11.81;100.00;101204.38;5073548;28;20482;-65
2021/05/20 10:27:52;;;;;;;46.15;7.70;;;;;;;11.82;100.00;101195.94;5073505;28;20036;-65
2021/05/20 10:30:21;;;;;;;37.67;6.45;;;;;;;11.84;100.00;101192.94;5073579;28;20037;-65
2021/05/20 10:32:53;;;;;;;60.67;7.00;;;;;;;11.89;100.00;101214.94;5073341;28;20036;-65
2021/05/20 10:35:19;;;;;;;46.17;7.03;;;;;;;11.90;100.00;101213.88;5073562;28;20064;-65
2021/05/20 10:37:44;;;;;;;49.30;9.75;;;;;;;11.87;100.00;101220.66;5072849;28;20075;-64
2021/05/20 10:40:25;;;;;;;46.20;6.60;;;;;;;11.88;100.00;101199.59;5072413;28;20048;-64
2021/05/20 10:43:05;;;;;;;61.25;7.57;;;;;;;11.90;100.00;101197.44;5072214;28;20036;-64
2021/05/20 10:45:31;;;;;;;61.85;9.45;;;;;;;11.91;100.00;101212.78;5072833;28;20542;-63
2021/05/20 10:48:03;;;;;;;57.65;9.27;;;;;;;11.92;100.00;101190.66;5072927;28;20037;-63
2021/05/20 10:50:54;;;;;;;59.00;9.77;;;;;;;11.93;100.00;101175.06;5071554;28;20041;-63
2021/05/20 10:53:38;;;;;;;58.47;8.27;;;;;;;11.96;100.00;101166.34;5073047;28;20032;-64
2021/05/20 10:56:08;;;;;;;51.15;7.50;;;;;;;11.97;100.00;101182.53;5072392;28;20048;-64
2021/05/20 10:58:37;;;;;;;69.10;9.35;;;;;;;11.99;100.00;101196.00;5073028;28;20032;-65
2021/05/20 11:01:27;;;;;;;53.03;7.40;;;;;;;12.02;100.00;101147.06;5072277;28;20040;-65
2021/05/20 11:03:57;;;;;;;55.42;8.48;;;;;;;12.04;100.00;101146.81;5072488;28;20140;-64
2021/05/20 11:06:37;;;;;;;64.28;9.40;;;;;;;12.08;100.00;101150.72;5071743;28;20511;-64
2021/05/20 11:09:03;;;;;;;53.95;8.45;;;;;;;12.13;100.00;101163.66;5071955;28;20115;-62
2021/05/20 11:11:31;;;;;;;55.47;7.88;;;;;;;12.20;100.00;101137.00;5072632;28;20170;-63
2021/05/20 11:14:02;;;;;;;54.70;8.95;;;;;;;12.23;100.00;101129.09;5071548;28;20061;-64
2021/05/20 11:16:28;;;;;;;64.22;9.45;;;;;;;12.28;100.00;101156.56;5071991;28;20029;-63
2021/05/20 11:19:14;;;;;;;56.35;9.38;;;;;;;12.30;100.00;101137.97;5071143;28;20114;-63